Historyczne dane pomiarowe

Dodano dane terminowe – wersja testowa.

Dane z okresu 1951-2019

Wersja bazy: 1.34 [2019-03-16, lista zmian], aktualizacja planowana na 2019-04-15

Dane meteo z obszaru Polski uzyskane na podstawie danych udostępnionych przez Instytut Meteorologii i Gospodarki Wodnej – Państwowy Instytut Badawczy.

 

Wybierz Datę:    

       

TemperaturaWilgotnośćWiatrCiśnienieOpadyŚniegCzas trwania zjawisk
 Stacja t tx tn tng RH VA  wxwx mslp ppp RRR   cm mm wxwxwxwxwxwxwx
1987-08-14 13.4 20.9 7.1 3.8 85.5- 5.3 4.3---- 2.4------------
1987-08-13 12.7 18.3 6.8 3.5 81.5- 4.7 2.7---- 0.0------------
1987-08-12 12.2 17.7 8.5 6.9 81.3- 3.3 3.7---- 0.0------------
1987-08-11 12.9 15.6 11.6 10.1 90.5- 7.7 7.0---- 3.9------------
1987-08-10 15.0 20.9 13.0 12.3 88.8- 6.0 4.3---- 1.9------------
1987-08-09 17.3 23.8 10.5 8.4 72.3- 3.7 1.3---- 0.7------------
1987-08-08 14.4 20.9 9.0 8.0 75.3- 4.3 2.0---- 0.0------------
1987-08-07 11.6 18.1 6.7 6.5 83.0- 5.3 3.7---- 4.9------------
1987-08-06 10.7 17.2 8.9 7.3 87.0- 7.0 4.0---- 2.6------------
1987-08-05 11.7 17.4 7.8 5.9 87.5- 5.3 1.0---- 1.2------------
1987-08-04 15.5 19.7 13.0 9.6 85.5- 7.3 4.3---- 3.4------------
1987-08-03 14.9 19.7 10.2 8.9 81.5- 5.3 2.7---- 0.0------------
1987-08-02 13.7 20.1 12.0 11.0 81.0- 8.0 3.0---- 7.5------------
1987-08-01 15.8 21.6 10.8 9.5 81.3- 7.0 1.0---- 2.3------------
1987-07-31 15.7 21.6 14.0 12.3 97.3- 8.0 1.0---- 2.1------------
1987-07-30 19.1 24.7 14.4 12.6 72.3- 3.0 2.7---- 2.6------------
1987-07-29 15.1 19.6 11.0 9.9 73.3- 7.0 2.7---- 0.0------------
1987-07-28 13.7 17.5 12.8 11.2 85.5- 7.3 5.0---- 1.1------------
1987-07-27 11.8 17.9 7.6 5.9 83.0- 7.0 5.7---- 1.1------------
1987-07-26 12.8 17.5 10.8 10.4 97.0- 8.0 2.3---- 6.9------------
1987-07-25 18.4 24.1 15.0 12.0 89.5- 6.3 1.0---- 4.0------------
1987-07-24 21.0 29.3 17.0 15.5 84.3- 6.7 4.3---- 0.6------------
1987-07-23 20.3 29.2 12.5 9.9 78.8- 0.7 1.3---- 0.1------------
1987-07-22 20.1 23.8 18.0 16.1 88.8- 4.7 1.3---- 0.0------------
1987-07-21 20.2 26.2 12.5 9.9 75.8- 5.3 1.7---- 0.0------------
1987-07-20 20.2 22.7 19.0 15.5 82.8- 7.3 5.7---- 0.0------------
1987-07-19 23.0 29.0 20.0 17.7 88.0- 3.0 1.3---- 2.3------------
1987-07-18 24.5 29.8 15.5 14.9 83.8- 0.7 0.3---- 2.4------------
1987-07-17 21.6 29.8 15.6 13.1 83.3- 4.7 2.7---- 19.6------------
1987-07-16 19.2 28.5 9.5 5.4 74.8- 1.3 1.7---- 1.9------------
1987-07-15 17.0 23.1 7.5 4.2 71.3- 2.3 3.0---- 0.0------------
1987-07-14 15.9 21.5 8.8 6.4 77.0- 3.0 2.3---- 0.0------------
1987-07-13 19.2 22.9 13.7 10.8 80.8- 4.0 3.7---- 0.0------------
1987-07-12 21.4 29.8 15.8 14.2 73.0- 4.7 6.3---- 6.9------------
1987-07-11 17.3 24.1 8.0 5.3 68.5- 1.7 3.7---- 0.0------------
1987-07-10 14.8 19.6 10.1 8.4 74.8- 3.3 5.0---- 0.0------------
1987-07-09 16.8 25.2 13.8 13.1 91.8- 8.0 2.0---- 5.4------------
1987-07-08 22.0 29.5 11.6 8.1 66.3- 0.0 2.0---- 0.3------------
1987-07-07 19.0 26.1 9.1 5.0 67.5- 0.0 2.7---- 0.0------------
1987-07-06 18.2 24.5 10.5 7.4 67.8- 0.0 0.3---- 0.0------------
1987-07-05 16.2 21.6 12.0 11.8 74.8- 5.7 3.0---- 0.2------------
1987-07-04 18.7 23.7 15.7 12.2 76.3- 5.0 0.3---- 0.0------------
1987-07-03 19.0 23.6 16.2 16.4 78.5- 6.3 1.3---- 0.0------------
1987-07-02 18.8 26.0 17.0 16.1 85.3- 8.0 3.7---- 0.0------------
1987-07-01 26.0 31.0 17.8 14.4 67.3- 0.0 2.0---- 0.0------------
1987-06-30 24.4 30.6 16.1 12.5 73.8- 0.7 1.0---- 0.0------------
1987-06-29 20.2 26.6 15.0 11.4 79.5- 2.7 0.3---- 0.0------------
1987-06-28 18.3 25.0 11.7 10.4 82.5- 5.0 3.7---- 0.0------------
1987-06-27 18.5 24.3 15.7 12.9 80.8- 5.3 2.3---- 0.0------------
1987-06-26 17.0 24.2 7.9 6.4 70.5- 3.0 3.0---- 4.1------------
1987-06-25 14.9 19.0 12.1 13.3 78.5- 3.7 5.3---- 0.0------------
1987-06-24 16.3 20.5 12.4 9.9 69.3- 4.7 3.0---- 0.6------------
1987-06-23 15.7 20.1 13.2 11.4 82.0- 7.3 3.0---- 6.2------------
1987-06-22 15.7 21.7 11.4 9.4 74.8- 4.3 1.7---- 1.6------------
1987-06-21 17.9 25.8 9.5 4.5 60.0- 0.0 2.0---- 0.0------------
1987-06-20 15.9 22.2 7.1 1.2 65.3- 2.7 1.7---- 0.0------------
1987-06-19 12.1 18.2 7.0 5.5 72.0- 4.7 1.7---- 0.0------------
1987-06-18 10.8 15.6 6.9 3.5 76.8- 6.7 3.7---- 0.0------------
1987-06-17 11.2 13.2 8.5 5.9 77.0- 7.0 4.3---- 0.0------------
1987-06-16 13.1 25.2 11.0 10.7 85.3- 8.0 5.7---- 0.0------------
323.9 ms

 

Źródłem pochodzenia danych jest Instytut Meteorologii i Gospodarki Wodnej – Państwowy Instytut Badawczy. Dane Instytutu Meteorologii i Gospodarki Wodnej – Państwowego Instytutu Badawczego zostały przetworzone.

Dane źródłowe można odnaleźć na stronie https://dane.imgw.pl